sensor_id;sensor_type;location;lat;lon;timestamp;pressure;altitude;pressure_sealevel;temperature;humidity
47815;BME280;33579;50.058;18.130;2023-06-10T00:00:11;98982.41;;;17.64;100.00
47815;BME280;33579;50.058;18.130;2023-06-10T00:01:12;98981.59;;;17.63;100.00
47815;BME280;33579;50.058;18.130;2023-06-10T00:02:14;98985.06;;;17.64;100.00
47815;BME280;33579;50.058;18.130;2023-06-10T00:03:16;98982.31;;;17.72;100.00
47815;BME280;33579;50.058;18.130;2023-06-10T00:04:18;98981.94;;;17.75;100.00
47815;BME280;33579;50.058;18.130;2023-06-10T00:05:19;98981.75;;;17.77;100.00
47815;BME280;33579;50.058;18.130;2023-06-10T00:06:21;98983.41;;;17.78;100.00
47815;BME280;33579;50.058;18.130;2023-06-10T00:07:23;98981.59;;;17.78;100.00
47815;BME280;33579;50.058;18.130;2023-06-10T00:08:24;98980.75;;;17.78;100.00
47815;BME280;33579;50.058;18.130;2023-06-10T00:09:26;98981.59;;;17.78;100.00
47815;BME280;33579;50.058;18.130;2023-06-10T00:10:28;98977.75;;;17.66;100.00
47815;BME280;33579;50.058;18.130;2023-06-10T00:11:30;98978.38;;;17.68;100.00
47815;BME280;33579;50.058;18.130;2023-06-10T00:12:32;98975.97;;;17.73;100.00
47815;BME280;33579;50.058;18.130;2023-06-10T00:13:33;98982.94;;;17.74;100.00
47815;BME280;33579;50.058;18.130;2023-06-10T00:14:37;98978.25;;;17.76;100.00
47815;BME280;33579;50.058;18.130;2023-06-10T00:15:39;98979.66;;;17.72;100.00
47815;BME280;33579;50.058;18.130;2023-06-10T00:16:41;98977.81;;;17.73;100.00
47815;BME280;33579;50.058;18.130;2023-06-10T00:17:42;98979.72;;;17.79;100.00
47815;BME280;33579;50.058;18.130;2023-06-10T00:18:44;98973.41;;;17.80;100.00
47815;BME280;33579;50.058;18.130;2023-06-10T00:19:46;98974.88;;;17.82;100.00
47815;BME280;33579;50.058;18.130;2023-06-10T00:20:48;98977.06;;;17.79;100.00
47815;BME280;33579;50.058;18.130;2023-06-10T00:21:49;98973.59;;;17.78;100.00
47815;BME280;33579;50.058;18.130;2023-06-10T00:22:51;98977.91;;;17.79;100.00
47815;BME280;33579;50.058;18.130;2023-06-10T00:23:54;98976.88;;;17.80;100.00
47815;BME280;33579;50.058;18.130;2023-06-10T00:24:55;98980.19;;;17.82;100.00
47815;BME280;33579;50.058;18.130;2023-06-10T00:26:00;98977.78;;;17.88;100.00
47815;BME280;33579;50.058;18.130;2023-06-10T00:27:01;98970.44;;;17.90;100.00
47815;BME280;33579;50.058;18.130;2023-06-10T00:28:03;98969.25;;;17.92;100.00
47815;BME280;33579;50.058;18.130;2023-06-10T00:29:05;98973.75;;;17.92;100.00
47815;BME280;33579;50.058;18.130;2023-06-10T00:30:07;98970.44;;;17.90;100.00
47815;BME280;33579;50.058;18.130;2023-06-10T00:31:09;98969.44;;;17.91;100.00
47815;BME280;33579;50.058;18.130;2023-06-10T00:32:10;98973.09;;;17.90;100.00
47815;BME280;33579;50.058;18.130;2023-06-10T00:33:12;98967.59;;;17.91;100.00
47815;BME280;33579;50.058;18.130;2023-06-10T00:34:14;98968.44;;;17.92;100.00
47815;BME280;33579;50.058;18.130;2023-06-10T00:35:15;98971.28;;;17.90;100.00
47815;BME280;33579;50.058;18.130;2023-06-10T00:36:17;98977.44;;;17.91;100.00
47815;BME280;33579;50.058;18.130;2023-06-10T00:37:19;98979.72;;;17.94;100.00
47815;BME280;33579;50.058;18.130;2023-06-10T00:38:20;98975.84;;;17.96;100.00
47815;BME280;33579;50.058;18.130;2023-06-10T00:39:22;98978.13;;;18.00;100.00
47815;BME280;33579;50.058;18.130;2023-06-10T00:40:24;98969.13;;;18.01;100.00
47815;BME280;33579;50.058;18.130;2023-06-10T00:41:25;98972.47;;;18.03;100.00
47815;BME280;33579;50.058;18.130;2023-06-10T00:42:27;98963.28;;;18.05;100.00
47815;BME280;33579;50.058;18.130;2023-06-10T00:43:28;98968.13;;;18.02;100.00
47815;BME280;33579;50.058;18.130;2023-06-10T00:44:30;98969.63;;;18.04;100.00
47815;BME280;33579;50.058;18.130;2023-06-10T00:45:32;98971.34;;;17.97;100.00
47815;BME280;33579;50.058;18.130;2023-06-10T00:46:34;98969.31;;;17.99;100.00
47815;BME280;33579;50.058;18.130;2023-06-10T00:47:36;98975.13;;;18.03;100.00
47815;BME280;33579;50.058;18.130;2023-06-10T00:48:39;98977.22;;;18.07;100.00
47815;BME280;33579;50.058;18.130;2023-06-10T00:49:44;98976.03;;;18.10;100.00
47815;BME280;33579;50.058;18.130;2023-06-10T00:50:46;98979.13;;;18.14;100.00
47815;BME280;33579;50.058;18.130;2023-06-10T00:51:48;98971.72;;;18.09;100.00
47815;BME280;33579;50.058;18.130;2023-06-10T00:52:50;98975.97;;;18.03;100.00
47815;BME280;33579;50.058;18.130;2023-06-10T00:53:54;98980.28;;;18.04;100.00
47815;BME280;33579;50.058;18.130;2023-06-10T00:54:56;98977.59;;;18.04;100.00
47815;BME280;33579;50.058;18.130;2023-06-10T00:55:58;98980.44;;;18.03;100.00
47815;BME280;33579;50.058;18.130;2023-06-10T00:57:01;98979.56;;;18.02;100.00
47815;BME280;33579;50.058;18.130;2023-06-10T00:58:03;98972.59;;;18.01;100.00
47815;BME280;33579;50.058;18.130;2023-06-10T00:59:06;98979.56;;;18.02;100.00
47815;BME280;33579;50.058;18.130;2023-06-10T01:00:08;98986.22;;;18.06;100.00
47815;BME280;33579;50.058;18.130;2023-06-10T01:01:10;98983.75;;;18.05;100.00
47815;BME280;33579;50.058;18.130;2023-06-10T01:02:12;98985.22;;;18.07;100.00
47815;BME280;33579;50.058;18.130;2023-06-10T01:03:13;98986.03;;;18.08;100.00
47815;BME280;33579;50.058;18.130;2023-06-10T01:04:15;98989.13;;;18.11;100.00
47815;BME280;33579;50.058;18.130;2023-06-10T01:05:17;98982.78;;;18.12;100.00
47815;BME280;33579;50.058;18.130;2023-06-10T01:06:28;98979.78;;;18.16;100.00
47815;BME280;33579;50.058;18.130;2023-06-10T01:08:19;98983.88;;;18.18;100.00
47815;BME280;33579;50.058;18.130;2023-06-10T01:09:38;98981.84;;;18.20;100.00
47815;BME280;33579;50.058;18.130;2023-06-10T01:10:55;98985.34;;;18.21;100.00
47815;BME280;33579;50.058;18.130;2023-06-10T01:12:05;98978.56;;;18.18;100.00
47815;BME280;33579;50.058;18.130;2023-06-10T01:13:10;98983.81;;;18.11;100.00
47815;BME280;33579;50.058;18.130;2023-06-10T01:14:13;98977.69;;;18.11;100.00
47815;BME280;33579;50.058;18.130;2023-06-10T01:15:15;98976.78;;;18.04;100.00
47815;BME280;33579;50.058;18.130;2023-06-10T01:16:18;98977.41;;;18.06;100.00
47815;BME280;33579;50.058;18.130;2023-06-10T01:17:20;98974.47;;;18.01;100.00
47815;BME280;33579;50.058;18.130;2023-06-10T01:18:22;98979.16;;;17.98;100.00
47815;BME280;33579;50.058;18.130;2023-06-10T01:19:24;98972.19;;;17.97;100.00
47815;BME280;33579;50.058;18.130;2023-06-10T01:20:26;98975.47;;;18.00;100.00
47815;BME280;33579;50.058;18.130;2023-06-10T01:21:29;98970.97;;;18.00;100.00
47815;BME280;33579;50.058;18.130;2023-06-10T01:22:34;98974.56;;;17.92;100.00
47815;BME280;33579;50.058;18.130;2023-06-10T01:23:36;98976.84;;;17.95;100.00
47815;BME280;33579;50.058;18.130;2023-06-10T01:24:38;98974.19;;;17.95;100.00
47815;BME280;33579;50.058;18.130;2023-06-10T01:26:09;98977.03;;;17.94;100.00
47815;BME280;33579;50.058;18.130;2023-06-10T01:27:13;98985.41;;;17.91;100.00
47815;BME280;33579;50.058;18.130;2023-06-10T01:29:36;98973.94;;;17.90;100.00
47815;BME280;33579;50.058;18.130;2023-06-10T01:30:46;98976.97;;;17.87;100.00
47815;BME280;33579;50.058;18.130;2023-06-10T01:32:05;98978.41;;;17.90;100.00
47815;BME280;33579;50.058;18.130;2023-06-10T01:33:09;98975.41;;;17.93;100.00
47815;BME280;33579;50.058;18.130;2023-06-10T01:34:14;98980.91;;;17.76;100.00
47815;BME280;33579;50.058;18.130;2023-06-10T01:35:18;98974.22;;;17.80;100.00
47815;BME280;33579;50.058;18.130;2023-06-10T01:36:23;98976.34;;;17.85;100.00
47815;BME280;33579;50.058;18.130;2023-06-10T01:37:26;98981.06;;;17.90;100.00
47815;BME280;33579;50.058;18.130;2023-06-10T01:38:30;98983.38;;;17.93;100.00
47815;BME280;33579;50.058;18.130;2023-06-10T01:39:34;98975.56;;;17.91;100.00
47815;BME280;33579;50.058;18.130;2023-06-10T01:40:37;98977.03;;;17.94;100.00
47815;BME280;33579;50.058;18.130;2023-06-10T01:41:39;98980.50;;;17.94;100.00
47815;BME280;33579;50.058;18.130;2023-06-10T01:42:41;98976.84;;;17.95;100.00
47815;BME280;33579;50.058;18.130;2023-06-10T01:43:44;98980.16;;;17.97;100.00
47815;BME280;33579;50.058;18.130;2023-06-10T01:44:47;98975.66;;;17.98;100.00
47815;BME280;33579;50.058;18.130;2023-06-10T01:45:49;98971.28;;;17.90;100.00
47815;BME280;33579;50.058;18.130;2023-06-10T01:46:51;98976.50;;;17.83;100.00
47815;BME280;33579;50.058;18.130;2023-06-10T01:47:52;98976.50;;;17.83;100.00
47815;BME280;33579;50.058;18.130;2023-06-10T01:48:54;98976.13;;;17.87;100.00
47815;BME280;33579;50.058;18.130;2023-06-10T01:49:56;98982.09;;;17.89;100.00
47815;BME280;33579;50.058;18.130;2023-06-10T01:50:57;98982.28;;;17.87;100.00
47815;BME280;33579;50.058;18.130;2023-06-10T01:51:59;98979.19;;;17.83;100.00
47815;BME280;33579;50.058;18.130;2023-06-10T01:53:00;98978.09;;;17.78;100.00
47815;BME280;33579;50.058;18.130;2023-06-10T01:54:02;98989.56;;;17.78;100.00
47815;BME280;33579;50.058;18.130;2023-06-10T01:55:04;98983.69;;;17.68;100.00
47815;BME280;33579;50.058;18.130;2023-06-10T01:56:06;98984.03;;;17.65;100.00
47815;BME280;33579;50.058;18.130;2023-06-10T01:57:08;98992.69;;;17.67;100.00
47815;BME280;33579;50.058;18.130;2023-06-10T01:58:10;98987.38;;;17.67;100.00
47815;BME280;33579;50.058;18.130;2023-06-10T01:59:11;98981.03;;;17.68;100.00
47815;BME280;33579;50.058;18.130;2023-06-10T02:00:13;98991.38;;;17.78;100.00
47815;BME280;33579;50.058;18.130;2023-06-10T02:01:19;98984.78;;;17.74;100.00
47815;BME280;33579;50.058;18.130;2023-06-10T02:02:20;98989.56;;;17.78;100.00
47815;BME280;33579;50.058;18.130;2023-06-10T02:03:22;98989.34;;;17.80;100.00
47815;BME280;33579;50.058;18.130;2023-06-10T02:04:24;98991.63;;;17.83;100.00
47815;BME280;33579;50.058;18.130;2023-06-10T02:05:25;98992.94;;;17.87;100.00
47815;BME280;33579;50.058;18.130;2023-06-10T02:06:27;98991.09;;;17.88;100.00
47815;BME280;33579;50.058;18.130;2023-06-10T02:07:29;98983.31;;;17.86;100.00
47815;BME280;33579;50.058;18.130;2023-06-10T02:08:30;98980.38;;;17.81;100.00
47815;BME280;33579;50.058;18.130;2023-06-10T02:09:34;98988.81;;;17.84;100.00
47815;BME280;33579;50.058;18.130;2023-06-10T02:10:36;98981.44;;;17.87;100.00
47815;BME280;33579;50.058;18.130;2023-06-10T02:11:37;98978.22;;;17.91;100.00
47815;BME280;33579;50.058;18.130;2023-06-10T02:12:39;98984.75;;;17.89;100.00
47815;BME280;33579;50.058;18.130;2023-06-10T02:13:41;98985.59;;;17.89;100.00
47815;BME280;33579;50.058;18.130;2023-06-10T02:14:42;98989.06;;;17.90;100.00
47815;BME280;33579;50.058;18.130;2023-06-10T02:15:44;98988.88;;;17.91;100.00
47815;BME280;33579;50.058;18.130;2023-06-10T02:16:46;98990.53;;;17.92;100.00
47815;BME280;33579;50.058;18.130;2023-06-10T02:17:48;98988.88;;;17.91;100.00
47815;BME280;33579;50.058;18.130;2023-06-10T02:18:50;98997.41;;;17.87;100.00
47815;BME280;33579;50.058;18.130;2023-06-10T02:19:51;98985.13;;;17.86;100.00
47815;BME280;33579;50.058;18.130;2023-06-10T02:20:53;98989.44;;;17.87;100.00
47815;BME280;33579;50.058;18.130;2023-06-10T02:21:56;98991.53;;;17.91;100.00
47815;BME280;33579;50.058;18.130;2023-06-10T02:22:58;98989.91;;;17.90;100.00
47815;BME280;33579;50.058;18.130;2023-06-10T02:24:00;98989.06;;;17.90;100.00
47815;BME280;33579;50.058;18.130;2023-06-10T02:25:02;98986.59;;;17.88;100.00
47815;BME280;33579;50.058;18.130;2023-06-10T02:26:05;98986.13;;;17.84;100.00
47815;BME280;33579;50.058;18.130;2023-06-10T02:27:07;98986.59;;;17.88;100.00
47815;BME280;33579;50.058;18.130;2023-06-10T02:28:08;98990.53;;;17.92;100.00
47815;BME280;33579;50.058;18.130;2023-06-10T02:29:10;98992.19;;;17.93;100.00
47815;BME280;33579;50.058;18.130;2023-06-10T02:30:12;98994.38;;;17.90;100.00
47815;BME280;33579;50.058;18.130;2023-06-10T02:31:14;98988.63;;;17.86;100.00
47815;BME280;33579;50.058;18.130;2023-06-10T02:32:15;98987.97;;;17.84;100.00
47815;BME280;33579;50.058;18.130;2023-06-10T02:33:17;98985.75;;;17.88;100.00
47815;BME280;33579;50.058;18.130;2023-06-10T02:34:19;98996.88;;;17.91;100.00
47815;BME280;33579;50.058;18.130;2023-06-10T02:35:22;98992.09;;;17.87;100.00
47815;BME280;33579;50.058;18.130;2023-06-10T02:36:24;98992.56;;;17.90;100.00
47815;BME280;33579;50.058;18.130;2023-06-10T02:37:26;98990.81;;;17.97;100.00
47815;BME280;33579;50.058;18.130;2023-06-10T02:38:29;98984.47;;;17.98;100.00
47815;BME280;33579;50.058;18.130;2023-06-10T02:39:31;98987.78;;;18.01;100.00
47815;BME280;33579;50.058;18.130;2023-06-10T02:40:33;98986.94;;;18.00;100.00
47815;BME280;33579;50.058;18.130;2023-06-10T02:41:35;98986.28;;;17.98;100.00
47815;BME280;33579;50.058;18.130;2023-06-10T02:42:37;98994.47;;;17.96;100.00
47815;BME280;33579;50.058;18.130;2023-06-10T02:43:39;98985.22;;;17.92;100.00
47815;BME280;33579;50.058;18.130;2023-06-10T02:44:40;98986.84;;;17.93;100.00
47815;BME280;33579;50.058;18.130;2023-06-10T02:45:46;98980.09;;;17.91;100.00
47815;BME280;33579;50.058;18.130;2023-06-10T02:46:49;98988.50;;;17.94;100.00
47815;BME280;33579;50.058;18.130;2023-06-10T02:47:51;98984.19;;;17.93;100.00
47815;BME280;33579;50.058;18.130;2023-06-10T02:48:53;98986.41;;;17.90;100.00
47815;BME280;33579;50.058;18.130;2023-06-10T02:49:57;98989.72;;;17.92;100.00
47815;BME280;33579;50.058;18.130;2023-06-10T02:50:59;98979.88;;;17.92;100.00
47815;BME280;33579;50.058;18.130;2023-06-10T02:52:09;98992.56;;;17.90;100.00
47815;BME280;33579;50.058;18.130;2023-06-10T02:53:10;98987.06;;;17.92;100.00
47815;BME280;33579;50.058;18.130;2023-06-10T02:54:16;98993.75;;;17.88;100.00
47815;BME280;33579;50.058;18.130;2023-06-10T02:55:17;99000.47;;;17.83;100.00
47815;BME280;33579;50.058;18.130;2023-06-10T02:56:24;98984.25;;;17.78;100.00
47815;BME280;33579;50.058;18.130;2023-06-10T02:57:27;98984.25;;;17.78;100.00
47815;BME280;33579;50.058;18.130;2023-06-10T02:58:29;98986.53;;;17.81;100.00
47815;BME280;33579;50.058;18.130;2023-06-10T02:59:31;98991.84;;;17.81;100.00
47815;BME280;33579;50.058;18.130;2023-06-10T03:00:33;98985.03;;;17.79;100.00
47815;BME280;33579;50.058;18.130;2023-06-10T03:01:35;98991.47;;;17.84;100.00
47815;BME280;33579;50.058;18.130;2023-06-10T03:02:40;98991.09;;;17.88;100.00
47815;BME280;33579;50.058;18.130;2023-06-10T03:03:44;99003.38;;;17.89;100.00
47815;BME280;33579;50.058;18.130;2023-06-10T03:04:48;98994.19;;;17.91;100.00
47815;BME280;33579;50.058;18.130;2023-06-10T03:05:51;98999.44;;;17.84;100.00
47815;BME280;33579;50.058;18.130;2023-06-10T03:06:55;99000.00;;;17.80;100.00
47815;BME280;33579;50.058;18.130;2023-06-10T03:08:02;99001.47;;;17.82;100.00
47815;BME280;33579;50.058;18.130;2023-06-10T03:09:06;98999.44;;;17.84;100.00
47815;BME280;33579;50.058;18.130;2023-06-10T03:10:08;98998.72;;;17.91;100.00
47815;BME280;33579;50.058;18.130;2023-06-10T03:11:12;98994.66;;;17.95;100.00
47815;BME280;33579;50.058;18.130;2023-06-10T03:12:14;99003.28;;;17.97;100.00
47815;BME280;33579;50.058;18.130;2023-06-10T03:13:20;99000.44;;;17.98;100.00
47815;BME280;33579;50.058;18.130;2023-06-10T03:14:22;99004.53;;;18.01;100.00
47815;BME280;33579;50.058;18.130;2023-06-10T03:15:23;99006.78;;;17.97;100.00
47815;BME280;33579;50.058;18.130;2023-06-10T03:16:25;99003.28;;;17.97;100.00
47815;BME280;33579;50.058;18.130;2023-06-10T03:17:27;99008.44;;;17.98;100.00
47815;BME280;33579;50.058;18.130;2023-06-10T03:18:29;99003.91;;;17.99;100.00
47815;BME280;33579;50.058;18.130;2023-06-10T03:19:31;99008.22;;;18.00;100.00
47815;BME280;33579;50.058;18.130;2023-06-10T03:20:32;99005.38;;;18.02;100.00
47815;BME280;33579;50.058;18.130;2023-06-10T03:21:34;99005.75;;;17.98;100.00
47815;BME280;33579;50.058;18.130;2023-06-10T03:22:36;99013.53;;;18.00;100.00
47815;BME280;33579;50.058;18.130;2023-06-10T03:23:42;99010.88;;;18.00;100.00
47815;BME280;33579;50.058;18.130;2023-06-10T03:24:44;99024.31;;;17.92;100.00
47815;BME280;33579;50.058;18.130;2023-06-10T03:25:45;99023.56;;;17.83;100.00
47815;BME280;33579;50.058;18.130;2023-06-10T03:26:50;99019.19;;;17.75;100.00
47815;BME280;33579;50.058;18.130;2023-06-10T03:27:52;99021.66;;;17.77;100.00
47815;BME280;33579;50.058;18.130;2023-06-10T03:28:53;99017.81;;;17.79;100.00
47815;BME280;33579;50.058;18.130;2023-06-10T03:29:57;99013.75;;;17.83;100.00
47815;BME280;33579;50.058;18.130;2023-06-10T03:31:00;99016.03;;;17.87;100.00
47815;BME280;33579;50.058;18.130;2023-06-10T03:32:05;99014.56;;;17.84;100.00
47815;BME280;33579;50.058;18.130;2023-06-10T03:33:08;99012.28;;;17.81;100.00
47815;BME280;33579;50.058;18.130;2023-06-10T03:34:11;99016.97;;;17.79;100.00
47815;BME280;33579;50.058;18.130;2023-06-10T03:35:12;99021.19;;;17.73;100.00
47815;BME280;33579;50.058;18.130;2023-06-10T03:36:14;99015.63;;;17.68;100.00
47815;BME280;33579;50.058;18.130;2023-06-10T03:37:16;99006.41;;;17.70;100.00
47815;BME280;33579;50.058;18.130;2023-06-10T03:38:21;99014.69;;;17.76;100.00
47815;BME280;33579;50.058;18.130;2023-06-10T03:39:22;99007.16;;;17.79;100.00
47815;BME280;33579;50.058;18.130;2023-06-10T03:40:24;99010.66;;;17.80;100.00
47815;BME280;33579;50.058;18.130;2023-06-10T03:41:26;99007.53;;;17.76;100.00
47815;BME280;33579;50.058;18.130;2023-06-10T03:42:28;99012.03;;;17.76;100.00
47815;BME280;33579;50.058;18.130;2023-06-10T03:43:30;99011.41;;;17.74;100.00
47815;BME280;33579;50.058;18.130;2023-06-10T03:44:32;99018.38;;;17.75;100.00
47815;BME280;33579;50.058;18.130;2023-06-10T03:45:33;99012.41;;;17.73;100.00
47815;BME280;33579;50.058;18.130;2023-06-10T03:46:36;99013.22;;;17.73;100.00
47815;BME280;33579;50.058;18.130;2023-06-10T03:47:38;99018.53;;;17.73;100.00
47815;BME280;33579;50.058;18.130;2023-06-10T03:48:43;99018.16;;;17.76;100.00
47815;BME280;33579;50.058;18.130;2023-06-10T03:49:45;99026.59;;;17.80;100.00
47815;BME280;33579;50.058;18.130;2023-06-10T03:50:47;99023.41;;;17.84;100.00
47815;BME280;33579;50.058;18.130;2023-06-10T03:51:49;99022.66;;;17.91;100.00
47815;BME280;33579;50.058;18.130;2023-06-10T03:52:50;99017.34;;;17.91;100.00
47815;BME280;33579;50.058;18.130;2023-06-10T03:53:56;99023.66;;;17.90;100.00
47815;BME280;33579;50.058;18.130;2023-06-10T03:54:57;99022.66;;;17.91;100.00
47815;BME280;33579;50.058;18.130;2023-06-10T03:55:59;99019.63;;;17.94;100.00
47815;BME280;33579;50.058;18.130;2023-06-10T03:57:01;99019.63;;;17.94;100.00
47815;BME280;33579;50.058;18.130;2023-06-10T03:58:04;99019.63;;;17.94;100.00
47815;BME280;33579;50.058;18.130;2023-06-10T03:59:05;99026.22;;;17.98;100.00
47815;BME280;33579;50.058;18.130;2023-06-10T04:00:08;99020.50;;;18.01;100.00
47815;BME280;33579;50.058;18.130;2023-06-10T04:01:15;99027.47;;;18.02;100.00
47815;BME280;33579;50.058;18.130;2023-06-10T04:02:17;99020.72;;;18.00;100.00
47815;BME280;33579;50.058;18.130;2023-06-10T04:03:18;99019.25;;;17.97;100.00
47815;BME280;33579;50.058;18.130;2023-06-10T04:04:24;99016.75;;;17.95;100.00
47815;BME280;33579;50.058;18.130;2023-06-10T04:05:25;99013.47;;;17.93;100.00
47815;BME280;33579;50.058;18.130;2023-06-10T04:06:27;99013.94;;;17.97;100.00
47815;BME280;33579;50.058;18.130;2023-06-10T04:07:28;99014.75;;;17.97;100.00
47815;BME280;33579;50.058;18.130;2023-06-10T04:08:31;99015.19;;;18.01;100.00
47815;BME280;33579;50.058;18.130;2023-06-10T04:09:34;99016.03;;;18.02;100.00
47815;BME280;33579;50.058;18.130;2023-06-10T04:10:36;99009.72;;;18.03;100.00
47815;BME280;33579;50.058;18.130;2023-06-10T04:11:38;99020.19;;;18.04;100.00
47815;BME280;33579;50.058;18.130;2023-06-10T04:12:40;99005.25;;;18.03;100.00
47815;BME280;33579;50.058;18.130;2023-06-10T04:13:42;99003.53;;;18.02;100.00
47815;BME280;33579;50.058;18.130;2023-06-10T04:14:44;99018.69;;;18.02;100.00
47815;BME280;33579;50.058;18.130;2023-06-10T04:15:46;99009.88;;;18.01;100.00
47815;BME280;33579;50.058;18.130;2023-06-10T04:16:50;99019.72;;;18.01;100.00
47815;BME280;33579;50.058;18.130;2023-06-10T04:17:52;99011.09;;;17.98;100.00
47815;BME280;33579;50.058;18.130;2023-06-10T04:18:58;99018.06;;;18.00;100.00
47815;BME280;33579;50.058;18.130;2023-06-10T04:20:00;99006.50;;;17.92;100.00
47815;BME280;33579;50.058;18.130;2023-06-10T04:21:02;99016.75;;;17.95;100.00
47815;BME280;33579;50.058;18.130;2023-06-10T04:22:06;99017.22;;;17.99;100.00
47815;BME280;33579;50.058;18.130;2023-06-10T04:23:07;99017.59;;;17.96;100.00
47815;BME280;33579;50.058;18.130;2023-06-10T04:24:09;99021.72;;;17.98;100.00
47815;BME280;33579;50.058;18.130;2023-06-10T04:25:11;99012.53;;;18.01;100.00
47815;BME280;33579;50.058;18.130;2023-06-10T04:26:14;99021.47;;;18.08;100.00
47815;BME280;33579;50.058;18.130;2023-06-10T04:27:16;99026.41;;;18.11;100.00
47815;BME280;33579;50.058;18.130;2023-06-10T04:28:18;99021.28;;;18.10;100.00
47815;BME280;33579;50.058;18.130;2023-06-10T04:29:20;99020.63;;;18.08;100.00
47815;BME280;33579;50.058;18.130;2023-06-10T04:30:22;99019.81;;;18.07;100.00
47815;BME280;33579;50.058;18.130;2023-06-10T04:31:25;99022.66;;;18.06;100.00
47815;BME280;33579;50.058;18.130;2023-06-10T04:32:26;99019.63;;;18.09;100.00
47815;BME280;33579;50.058;18.130;2023-06-10T04:33:28;99017.59;;;18.11;100.00
47815;BME280;33579;50.058;18.130;2023-06-10T04:34:30;99020.28;;;18.11;100.00
47815;BME280;33579;50.058;18.130;2023-06-10T04:35:32;99015.56;;;18.13;100.00
47815;BME280;33579;50.058;18.130;2023-06-10T04:36:35;99018.25;;;18.13;100.00
47815;BME280;33579;50.058;18.130;2023-06-10T04:37:38;99018.03;;;18.15;100.00
47815;BME280;33579;50.058;18.130;2023-06-10T04:38:39;99017.84;;;18.16;100.00
47815;BME280;33579;50.058;18.130;2023-06-10T04:39:42;99015.19;;;18.16;100.00
47815;BME280;33579;50.058;18.130;2023-06-10T04:40:44;99018.03;;;18.15;100.00
47815;BME280;33579;50.058;18.130;2023-06-10T04:41:47;99020.06;;;18.12;100.00
47815;BME280;33579;50.058;18.130;2023-06-10T04:42:49;99022.47;;;18.07;100.00
47815;BME280;33579;50.058;18.130;2023-06-10T04:43:51;99015.50;;;18.06;100.00
47815;BME280;33579;50.058;18.130;2023-06-10T04:44:53;99023.03;;;18.03;100.00
47815;BME280;33579;50.058;18.130;2023-06-10T04:45:55;99015.41;;;18.00;100.00
47815;BME280;33579;50.058;18.130;2023-06-10T04:46:57;99020.81;;;17.91;100.00
47815;BME280;33579;50.058;18.130;2023-06-10T04:47:58;99025.69;;;17.88;100.00
47815;BME280;33579;50.058;18.130;2023-06-10T04:49:01;99025.34;;;17.76;100.00
47815;BME280;33579;50.058;18.130;2023-06-10T04:50:03;99016.34;;;17.77;100.00
47815;BME280;33579;50.058;18.130;2023-06-10T04:51:05;99022.13;;;17.80;100.00
47815;BME280;33579;50.058;18.130;2023-06-10T04:52:07;99021.28;;;17.80;100.00
47815;BME280;33579;50.058;18.130;2023-06-10T04:53:12;99019.25;;;17.82;100.00
47815;BME280;33579;50.058;18.130;2023-06-10T04:54:18;99024.59;;;17.82;100.00
47815;BME280;33579;50.058;18.130;2023-06-10T04:55:19;99019.09;;;17.83;100.00
47815;BME280;33579;50.058;18.130;2023-06-10T04:56:21;99023.84;;;17.88;100.00
47815;BME280;33579;50.058;18.130;2023-06-10T04:57:22;99026.50;;;17.88;100.00
47815;BME280;33579;50.058;18.130;2023-06-10T04:58:24;99019.34;;;17.89;100.00
47815;BME280;33579;50.058;18.130;2023-06-10T04:59:26;99022.56;;;17.84;100.00
47815;BME280;33579;50.058;18.130;2023-06-10T05:00:27;99020.09;;;17.82;100.00
47815;BME280;33579;50.058;18.130;2023-06-10T05:01:29;99021.00;;;17.90;100.00
47815;BME280;33579;50.058;18.130;2023-06-10T05:02:31;99023.31;;;17.93;100.00
47815;BME280;33579;50.058;18.130;2023-06-10T05:03:32;99028.00;;;17.91;100.00
47815;BME280;33579;50.058;18.130;2023-06-10T05:04:34;99020.66;;;17.93;100.00
47815;BME280;33579;50.058;18.130;2023-06-10T05:05:36;99021.00;;;17.90;100.00
47815;BME280;33579;50.058;18.130;2023-06-10T05:06:37;99015.56;;;17.98;100.00
47815;BME280;33579;50.058;18.130;2023-06-10T05:07:39;99027.69;;;18.01;100.00
47815;BME280;33579;50.058;18.130;2023-06-10T05:08:40;99024.69;;;18.04;100.00
47815;BME280;33579;50.058;18.130;2023-06-10T05:09:42;99029.44;;;18.08;100.00
47815;BME280;33579;50.058;18.130;2023-06-10T05:10:44;99027.41;;;18.10;100.00
47815;BME280;33579;50.058;18.130;2023-06-10T05:11:45;99016.97;;;18.09;100.00
47815;BME280;33579;50.058;18.130;2023-06-10T05:12:47;99026.22;;;18.13;100.00
47815;BME280;33579;50.058;18.130;2023-06-10T05:13:48;99021.72;;;18.14;100.00
47815;BME280;33579;50.058;18.130;2023-06-10T05:14:50;99029.41;;;18.23;100.00
47815;BME280;33579;50.058;18.130;2023-06-10T05:15:52;99022.88;;;18.26;100.00
47815;BME280;33579;50.058;18.130;2023-06-10T05:16:53;99028.19;;;18.26;100.00
47815;BME280;33579;50.058;18.130;2023-06-10T05:17:56;99034.44;;;18.33;100.00
47815;BME280;33579;50.058;18.130;2023-06-10T05:18:58;99037.72;;;18.35;100.00
47815;BME280;33579;50.058;18.130;2023-06-10T05:20:00;99032.84;;;18.39;100.00
47815;BME280;33579;50.058;18.130;2023-06-10T05:21:02;99025.81;;;18.31;100.00
47815;BME280;33579;50.058;18.130;2023-06-10T05:22:04;99036.09;;;18.34;100.00
47815;BME280;33579;50.058;18.130;2023-06-10T05:23:05;99040.66;;;18.40;100.00
47815;BME280;33579;50.058;18.130;2023-06-10T05:24:07;99038.25;;;18.46;100.00
47815;BME280;33579;50.058;18.130;2023-06-10T05:25:09;99036.59;;;18.45;100.00